createdAt,value
2022-09-17T00:00:45.189Z,90.3
2022-09-17T00:01:48.672Z,90.5
2022-09-17T00:02:52.124Z,90.4
2022-09-17T00:03:56.089Z,90.4
2022-09-17T00:04:58.920Z,90.4
2022-09-17T00:06:02.541Z,90.4
2022-09-17T00:07:06.882Z,90.3
2022-09-17T00:08:09.477Z,90
2022-09-17T00:09:12.670Z,89.9
2022-09-17T00:10:15.467Z,89.8
2022-09-17T00:11:18.631Z,89.8
2022-09-17T00:12:21.227Z,89.9
2022-09-17T00:13:24.022Z,90.3
2022-09-17T00:14:26.900Z,90.4
2022-09-17T00:15:30.153Z,90.3
2022-09-17T00:16:33.304Z,90
2022-09-17T00:17:36.581Z,89.5
2022-09-17T00:18:39.755Z,89.6
2022-09-17T00:19:42.746Z,89.8
2022-09-17T00:20:45.662Z,89.7
2022-09-17T00:21:48.490Z,89.5
2022-09-17T00:22:52.839Z,89.4
2022-09-17T00:23:55.810Z,89.7
2022-09-17T00:24:58.754Z,89.8
2022-09-17T00:26:01.710Z,90
2022-09-17T00:27:04.760Z,90
2022-09-17T00:28:08.253Z,90.2
2022-09-17T00:29:10.481Z,90
2022-09-17T00:30:13.550Z,90.1
2022-09-17T00:31:17.411Z,90.3
2022-09-17T00:32:21.043Z,90.4
2022-09-17T00:33:24.549Z,90.2
2022-09-17T00:34:27.702Z,90.5
2022-09-17T00:35:30.697Z,90.6
2022-09-17T00:36:34.173Z,90.6
2022-09-17T00:37:37.577Z,90.6
2022-09-17T00:38:42.137Z,90.5
2022-09-17T00:39:44.948Z,90.3
2022-09-17T00:40:47.966Z,90.4
2022-09-17T00:41:51.138Z,90.5
2022-09-17T00:42:54.226Z,90.4
2022-09-17T00:43:56.955Z,90.5
2022-09-17T00:45:00.230Z,90.4
2022-09-17T00:46:03.394Z,90.5
2022-09-17T00:47:06.363Z,90.6
2022-09-17T00:48:09.997Z,90.5
2022-09-17T00:49:13.745Z,90.2
2022-09-17T00:50:16.881Z,89.8
2022-09-17T00:51:19.943Z,89.5
2022-09-17T00:52:22.952Z,89.5
2022-09-17T00:53:25.999Z,89.6
2022-09-17T00:54:30.080Z,89.8
2022-09-17T00:55:32.607Z,89.9
2022-09-17T00:56:35.047Z,89.9
2022-09-17T00:57:37.760Z,89.9
2022-09-17T00:58:42.293Z,89.8
2022-09-17T00:59:45.514Z,89.6
2022-09-17T01:00:49.076Z,89.8
2022-09-17T01:01:52.281Z,89.7
2022-09-17T01:02:55.978Z,89.7
2022-09-17T01:03:59.115Z,89.9
2022-09-17T01:05:02.056Z,89.7
2022-09-17T01:06:04.930Z,89.6
2022-09-17T01:07:07.507Z,89.8
2022-09-17T01:08:10.475Z,89.9
2022-09-17T01:09:13.885Z,89.8
2022-09-17T01:10:18.445Z,89.6
2022-09-17T01:11:21.520Z,89.2
2022-09-17T01:12:23.954Z,89.4
2022-09-17T01:13:27.408Z,89.9
2022-09-17T01:14:30.680Z,89.6
2022-09-17T01:15:33.355Z,89.6
2022-09-17T01:16:36.574Z,89.7
2022-09-17T01:17:40.022Z,89.5
2022-09-17T01:18:43.132Z,90
2022-09-17T01:19:46.002Z,90
2022-09-17T01:20:48.946Z,89.9
2022-09-17T01:21:52.033Z,89.8
2022-09-17T01:22:55.014Z,89.8
2022-09-17T01:23:58.564Z,89.8
2022-09-17T01:25:00.957Z,89.2
2022-09-17T01:26:05.528Z,88.9
2022-09-17T01:27:07.768Z,89
2022-09-17T01:28:10.007Z,89.4
2022-09-17T01:29:12.873Z,89.2
2022-09-17T01:30:15.673Z,89.6
2022-09-17T01:31:18.244Z,90.1
2022-09-17T01:32:21.224Z,89.8
2022-09-17T01:33:23.814Z,89.5
2022-09-17T01:34:26.533Z,89.3
2022-09-17T01:35:29.324Z,89.1
2022-09-17T01:36:32.318Z,89.1
2022-09-17T01:37:35.678Z,89.2
2022-09-17T01:38:38.744Z,89.2
2022-09-17T01:39:41.735Z,89.5
2022-09-17T01:40:45.118Z,89.2
2022-09-17T01:41:49.669Z,89.2
2022-09-17T01:42:52.740Z,89.1
2022-09-17T01:43:54.979Z,89.1
2022-09-17T01:44:58.157Z,89.1
2022-09-17T01:46:01.146Z,88.9
2022-09-17T01:47:03.461Z,88.9
2022-09-17T01:48:06.530Z,88.8
2022-09-17T01:49:09.287Z,88.7
2022-09-17T01:50:12.093Z,89
2022-09-17T01:51:15.551Z,88.9
2022-09-17T01:52:18.078Z,88.8
2022-09-17T01:53:20.118Z,88.9
2022-09-17T01:54:22.714Z,88.8
2022-09-17T01:55:25.624Z,88.8
2022-09-17T01:56:29.143Z,88.9
2022-09-17T01:57:33.493Z,89
2022-09-17T01:58:35.839Z,88.7
2022-09-17T01:59:39.108Z,88.6
2022-09-17T02:00:42.373Z,88.6
2022-09-17T02:01:46.139Z,88.7
2022-09-17T02:02:49.998Z,88.8
2022-09-17T02:03:53.137Z,89.1
2022-09-17T02:04:55.647Z,88.8
2022-09-17T02:05:58.451Z,88.6
2022-09-17T02:07:01.236Z,88.7
2022-09-17T02:08:03.673Z,88.8
2022-09-17T02:09:06.456Z,88.7
2022-09-17T02:10:09.135Z,88.8
2022-09-17T02:11:11.803Z,88.6
2022-09-17T02:12:15.114Z,88.3
2022-09-17T02:13:19.730Z,88.4
2022-09-17T02:14:23.175Z,88.5
2022-09-17T02:15:25.432Z,88.6
2022-09-17T02:16:28.487Z,88.9
2022-09-17T02:17:31.685Z,89
2022-09-17T02:18:34.835Z,88.9
2022-09-17T02:19:38.273Z,89.1
2022-09-17T02:20:40.583Z,88.9
2022-09-17T02:21:44.310Z,88.7
2022-09-17T02:22:47.921Z,88.5
2022-09-17T02:23:51.092Z,88.3
2022-09-17T02:24:53.875Z,88.4
2022-09-17T02:25:56.664Z,88.7
2022-09-17T02:26:59.579Z,88.6
2022-09-17T02:28:05.252Z,88.8
2022-09-17T02:29:09.599Z,88.8
2022-09-17T02:30:12.767Z,88.6
2022-09-17T02:31:15.933Z,88.5
2022-09-17T02:32:18.603Z,88.7
2022-09-17T02:33:21.402Z,88.6
2022-09-17T02:34:24.116Z,88.5
2022-09-17T02:35:26.994Z,88.7
2022-09-17T02:36:30.459Z,88.7
2022-09-17T02:37:33.135Z,88.9
2022-09-17T02:38:35.852Z,88.6
2022-09-17T02:39:38.291Z,88.6
2022-09-17T02:40:40.912Z,88.7
2022-09-17T02:41:43.511Z,88.6
2022-09-17T02:42:46.738Z,88.7
2022-09-17T02:43:50.132Z,88.6
2022-09-17T02:44:54.885Z,88.4
2022-09-17T02:45:57.610Z,88.4
2022-09-17T02:47:00.553Z,88.7
2022-09-17T02:48:03.269Z,88.6
2022-09-17T02:49:05.228Z,88.8
2022-09-17T02:50:07.933Z,89
2022-09-17T02:51:10.874Z,89.3
2022-09-17T02:52:13.942Z,89.2
2022-09-17T02:53:17.143Z,89.3
2022-09-17T02:54:20.604Z,89.2
2022-09-17T02:55:23.603Z,88.8
2022-09-17T02:56:26.508Z,88.8
2022-09-17T02:57:29.884Z,88.4
2022-09-17T02:58:32.878Z,88
2022-09-17T02:59:35.356Z,88.3
2022-09-17T03:00:39.886Z,88.2
2022-09-17T03:01:42.566Z,88.5
2022-09-17T03:02:45.331Z,88.4
2022-09-17T03:03:47.658Z,88.3
2022-09-17T03:04:51.097Z,88.5
2022-09-17T03:05:54.179Z,88.7
2022-09-17T03:06:56.793Z,88.4
2022-09-17T03:07:59.936Z,88.3
2022-09-17T03:09:03.311Z,88.7
2022-09-17T03:10:06.483Z,88.5
2022-09-17T03:11:09.565Z,88.2
2022-09-17T03:12:12.281Z,88.3
2022-09-17T03:13:15.072Z,88
2022-09-17T03:14:18.697Z,87.9
2022-09-17T03:15:21.725Z,88
2022-09-17T03:16:26.538Z,88
2022-09-17T03:17:29.336Z,88.2
2022-09-17T03:18:32.497Z,88.4
2022-09-17T03:19:35.032Z,88.1
2022-09-17T03:20:38.652Z,88.1
2022-09-17T03:21:41.262Z,88.4
2022-09-17T03:22:44.166Z,88.8
2022-09-17T03:23:47.395Z,88.6
2022-09-17T03:24:51.009Z,88.4
2022-09-17T03:25:53.800Z,88.3
2022-09-17T03:26:57.184Z,88
2022-09-17T03:27:59.965Z,88.1
2022-09-17T03:29:02.481Z,88.5
2022-09-17T03:30:05.389Z,88.3
2022-09-17T03:31:09.083Z,88.5
2022-09-17T03:32:13.940Z,88.2
2022-09-17T03:33:16.561Z,88.1
2022-09-17T03:34:19.445Z,87.8
2022-09-17T03:35:22.523Z,87.5
2022-09-17T03:36:25.517Z,87.4
2022-09-17T03:37:34.024Z,87.7
2022-09-17T03:38:37.180Z,87.6
2022-09-17T03:39:40.068Z,87.7
2022-09-17T03:40:43.773Z,87.9
2022-09-17T03:41:46.292Z,87.7
2022-09-17T03:42:49.677Z,87.8
2022-09-17T03:43:51.847Z,87.6
2022-09-17T03:44:55.085Z,87.4
2022-09-17T03:45:58.909Z,87.3
2022-09-17T03:47:03.223Z,87.7
2022-09-17T03:48:07.586Z,87.8
2022-09-17T03:49:10.104Z,88
2022-09-17T03:50:13.459Z,88.6
2022-09-17T03:51:16.525Z,87.7
2022-09-17T03:52:19.660Z,87.9
2022-09-17T03:53:23.086Z,88.1
2022-09-17T03:54:25.619Z,87.7
2022-09-17T03:55:28.521Z,87.7
2022-09-17T03:56:31.332Z,87.6
2022-09-17T03:57:34.598Z,87.5
2022-09-17T03:58:37.113Z,87.2
2022-09-17T03:59:39.546Z,87.2
2022-09-17T04:00:42.265Z,86.9
2022-09-17T04:01:45.537Z,86.8
2022-09-17T04:02:49.825Z,86.9
2022-09-17T04:03:55.102Z,86.9
2022-09-17T04:04:58.668Z,87.1
2022-09-17T04:06:01.814Z,87.4
2022-09-17T04:07:04.423Z,87.2
2022-09-17T04:08:07.157Z,87.5
2022-09-17T04:09:10.617Z,87.5
2022-09-17T04:10:13.789Z,88
2022-09-17T04:11:16.669Z,87.8
2022-09-17T04:12:19.390Z,87.5
2022-09-17T04:13:22.540Z,87.4
2022-09-17T04:14:25.987Z,87.5
2022-09-17T04:15:29.346Z,87.3
2022-09-17T04:16:32.447Z,87.2
2022-09-17T04:17:35.501Z,86.9
2022-09-17T04:18:39.207Z,86.9
2022-09-17T04:19:43.759Z,87
2022-09-17T04:20:46.363Z,87.5
2022-09-17T04:21:49.439Z,87.2
2022-09-17T04:22:52.783Z,87.5
2022-09-17T04:23:56.206Z,87.9
2022-09-17T04:24:59.004Z,87.5
2022-09-17T04:26:01.986Z,86.8
2022-09-17T04:27:05.120Z,86.6
2022-09-17T04:28:08.308Z,86.2
2022-09-17T04:29:11.185Z,86.5
2022-09-17T04:30:14.056Z,86.1
2022-09-17T04:31:17.736Z,86.5
2022-09-17T04:32:21.209Z,87
2022-09-17T04:33:24.691Z,87.1
2022-09-17T04:34:27.599Z,86.7
2022-09-17T04:35:31.879Z,86.5
2022-09-17T04:36:34.471Z,86.3
2022-09-17T04:37:36.905Z,86.5
2022-09-17T04:38:40.339Z,86.3
2022-09-17T04:39:43.600Z,86.3
2022-09-17T04:40:46.763Z,86.7
2022-09-17T04:41:49.840Z,86.2
2022-09-17T04:42:52.089Z,86.4
2022-09-17T04:43:54.967Z,86.6
2022-09-17T04:44:57.786Z,86
2022-09-17T04:46:01.138Z,86.1
2022-09-17T04:47:03.930Z,86.5
2022-09-17T04:48:06.813Z,85.8
2022-09-17T04:49:09.174Z,85.8
2022-09-17T04:50:12.833Z,85.9
2022-09-17T04:51:17.110Z,86
2022-09-17T04:52:21.190Z,86.7
2022-09-17T04:53:23.998Z,86.4
2022-09-17T04:54:27.432Z,86.5
2022-09-17T04:55:30.315Z,86.1
2022-09-17T04:56:33.752Z,85.8
2022-09-17T04:57:35.912Z,86.2
2022-09-17T04:58:38.763Z,86.2
2022-09-17T04:59:42.189Z,85.7
2022-09-17T05:00:45.590Z,85.9
2022-09-17T05:01:49.368Z,85.3
2022-09-17T05:02:52.381Z,85.4
2022-09-17T05:03:55.818Z,86
2022-09-17T05:04:59.385Z,86
2022-09-17T05:06:03.248Z,85.7
2022-09-17T05:07:14.163Z,85.5
2022-09-17T05:08:17.003Z,85.6
2022-09-17T05:09:20.349Z,85.5
2022-09-17T05:10:23.445Z,85.7
2022-09-17T05:11:26.507Z,85.7
2022-09-17T05:12:35.738Z,85.6
2022-09-17T05:13:38.814Z,85.5
2022-09-17T05:14:41.530Z,86
2022-09-17T05:15:45.149Z,86
2022-09-17T05:16:48.709Z,85.7
2022-09-17T05:17:52.211Z,85.6
2022-09-17T05:18:54.830Z,85.6
2022-09-17T05:19:57.499Z,85.7
2022-09-17T05:21:00.892Z,86
2022-09-17T05:22:04.010Z,85.9
2022-09-17T05:23:08.347Z,85.7
2022-09-17T05:24:11.236Z,85.8
2022-09-17T05:25:14.122Z,85.7
2022-09-17T05:26:16.913Z,85.9
2022-09-17T05:27:20.441Z,85.8
2022-09-17T05:28:23.837Z,85.6
2022-09-17T05:29:27.189Z,85.9
2022-09-17T05:30:29.725Z,85.6
2022-09-17T05:31:33.136Z,86
2022-09-17T05:32:36.121Z,86
2022-09-17T05:33:38.844Z,85.8
2022-09-17T05:34:42.270Z,86
2022-09-17T05:35:45.427Z,86.1
2022-09-17T05:36:48.699Z,86.3
2022-09-17T05:37:52.358Z,85.7
2022-09-17T05:38:56.448Z,85.5
2022-09-17T05:39:59.294Z,85.8
2022-09-17T05:41:02.882Z,85.9
2022-09-17T05:42:06.401Z,85.7
2022-09-17T05:43:08.904Z,85.7
2022-09-17T05:44:18.968Z,85.5
2022-09-17T05:45:21.281Z,85.5
2022-09-17T05:46:24.615Z,85.4
2022-09-17T05:47:27.761Z,85.2
2022-09-17T05:48:30.980Z,85
2022-09-17T05:49:33.769Z,84.9
2022-09-17T05:50:36.297Z,84.7
2022-09-17T05:51:39.080Z,85
2022-09-17T05:52:42.078Z,85.5
2022-09-17T05:53:45.587Z,85.1
2022-09-17T05:54:50.069Z,84.5
2022-09-17T05:55:53.062Z,84.7
2022-09-17T05:56:56.125Z,84.8
2022-09-17T05:57:58.839Z,84.6
2022-09-17T05:59:02.063Z,84.7
2022-09-17T06:00:05.585Z,84.8
2022-09-17T06:01:08.648Z,84.8
2022-09-17T06:02:11.861Z,84.4
2022-09-17T06:03:15.871Z,84.5
2022-09-17T06:04:19.615Z,84.5
2022-09-17T06:05:21.883Z,84.4
2022-09-17T06:06:24.478Z,84.9
2022-09-17T06:07:27.546Z,84.4
2022-09-17T06:08:31.339Z,85
2022-09-17T06:09:34.733Z,84.9
2022-09-17T06:10:39.242Z,85.1
2022-09-17T06:11:41.845Z,84.7
2022-09-17T06:12:44.745Z,84.7
2022-09-17T06:13:47.682Z,84.8
2022-09-17T06:14:50.000Z,84.8
2022-09-17T06:15:53.450Z,84.5
2022-09-17T06:16:56.589Z,84.3
2022-09-17T06:17:59.450Z,84.4
2022-09-17T06:19:02.796Z,84.3
2022-09-17T06:20:06.558Z,84
2022-09-17T06:21:09.350Z,84.3
2022-09-17T06:22:12.796Z,84.6
2022-09-17T06:23:17.517Z,84.2
2022-09-17T06:24:20.420Z,83.8
2022-09-17T06:25:23.180Z,83.9
2022-09-17T06:26:27.489Z,83.9
2022-09-17T06:27:30.086Z,83.9
2022-09-17T06:28:35.018Z,84.2
2022-09-17T06:29:44.203Z,84.4
2022-09-17T06:30:47.080Z,83.8
2022-09-17T06:31:50.688Z,83.5
2022-09-17T06:32:53.582Z,84
2022-09-17T06:33:59.635Z,83.8
2022-09-17T06:35:03.891Z,83.2
2022-09-17T06:36:15.202Z,83.4
2022-09-17T06:37:18.656Z,83.8
2022-09-17T06:38:21.535Z,83.7
2022-09-17T06:39:24.917Z,84.2
2022-09-17T06:40:28.801Z,84.3
2022-09-17T06:41:33.651Z,83.7
2022-09-17T06:42:36.890Z,83.9
2022-09-17T06:43:39.950Z,84
2022-09-17T06:44:43.673Z,83.6
2022-09-17T06:45:47.046Z,83.4
2022-09-17T06:46:50.420Z,83.5
2022-09-17T06:47:53.450Z,83.2
2022-09-17T06:48:57.105Z,83.2
2022-09-17T06:49:59.998Z,83.3
2022-09-17T06:51:02.318Z,83.2
2022-09-17T06:52:05.189Z,83.6
2022-09-17T06:53:08.061Z,83.8
2022-09-17T06:54:11.121Z,83.2
2022-09-17T06:55:14.111Z,83.4
2022-09-17T06:56:18.081Z,83
2022-09-17T06:57:22.689Z,83.3
2022-09-17T06:58:24.927Z,82.7
2022-09-17T06:59:28.276Z,82.7
2022-09-17T07:00:31.417Z,82.3
2022-09-17T07:01:34.722Z,82.3
2022-09-17T07:02:37.414Z,82.4
2022-09-17T07:03:41.410Z,83
2022-09-17T07:04:44.868Z,82.3
2022-09-17T07:05:47.690Z,82
2022-09-17T07:06:50.762Z,81.2
2022-09-17T07:07:53.554Z,81.3
2022-09-17T07:08:56.343Z,81.7
2022-09-17T07:09:59.217Z,81.2
2022-09-17T07:11:02.775Z,81.4
2022-09-17T07:12:05.537Z,81.2
2022-09-17T07:13:10.102Z,81.9
2022-09-17T07:14:13.458Z,81.6
2022-09-17T07:15:16.052Z,80.5
2022-09-17T07:16:19.709Z,80.2
2022-09-17T07:17:23.392Z,81.3
2022-09-17T07:18:27.399Z,82.1
2022-09-17T07:19:29.639Z,80.1
2022-09-17T07:20:32.347Z,80
2022-09-17T07:21:35.153Z,79.7
2022-09-17T07:22:38.367Z,79.4
2022-09-17T07:23:41.455Z,79.6
2022-09-17T07:24:44.114Z,79.9
2022-09-17T07:25:47.192Z,80
2022-09-17T07:26:50.667Z,79.7
2022-09-17T07:27:54.245Z,78.6
2022-09-17T07:28:58.779Z,78.2
2022-09-17T07:30:01.392Z,78.5
2022-09-17T07:31:04.650Z,78.7
2022-09-17T07:32:07.207Z,78.4
2022-09-17T07:33:10.372Z,77.9
2022-09-17T07:34:12.619Z,77.9
2022-09-17T07:35:16.044Z,78
2022-09-17T07:36:18.756Z,77.6
2022-09-17T07:37:21.816Z,78
2022-09-17T07:38:24.684Z,78
2022-09-17T07:39:27.473Z,78.4
2022-09-17T07:40:31.305Z,78.9
2022-09-17T07:41:34.636Z,77.9
2022-09-17T07:42:37.544Z,79
2022-09-17T07:43:40.842Z,77.5
2022-09-17T07:44:45.175Z,77
2022-09-17T07:45:47.874Z,77
2022-09-17T07:46:51.079Z,76.8
2022-09-17T07:47:54.968Z,76.8
2022-09-17T07:48:58.147Z,78.4
2022-09-17T07:50:00.939Z,77
2022-09-17T07:51:04.204Z,77.5
2022-09-17T07:52:07.343Z,76.3
2022-09-17T07:53:09.863Z,77.3
2022-09-17T07:54:12.578Z,76.3
2022-09-17T07:55:15.459Z,76.5
2022-09-17T07:56:17.977Z,76.7
2022-09-17T07:57:20.776Z,77.4
2022-09-17T07:58:23.333Z,77
2022-09-17T07:59:26.454Z,75.7
2022-09-17T08:00:30.761Z,76
2022-09-17T08:01:33.946Z,76.2
2022-09-17T08:02:38.060Z,76.4
2022-09-17T08:03:41.634Z,75.1
2022-09-17T08:04:44.891Z,75.5
2022-09-17T08:05:48.330Z,75.4
2022-09-17T08:06:51.800Z,76.3
2022-09-17T08:07:54.593Z,75.9
2022-09-17T08:08:57.465Z,75
2022-09-17T08:10:00.834Z,74.7
2022-09-17T08:11:03.348Z,74.9
2022-09-17T08:12:06.307Z,75
2022-09-17T08:13:09.561Z,74.6
2022-09-17T08:14:12.640Z,73.9
2022-09-17T08:15:15.314Z,73.8
2022-09-17T08:16:20.085Z,74.3
2022-09-17T08:17:23.750Z,74.6
2022-09-17T08:18:27.124Z,74.3
2022-09-17T08:19:30.277Z,74.3
2022-09-17T08:20:33.158Z,74.8
2022-09-17T08:21:36.062Z,74.5
2022-09-17T08:22:39.410Z,74
2022-09-17T08:23:42.472Z,74.1
2022-09-17T08:24:45.969Z,73.8
2022-09-17T08:25:49.033Z,74.9
2022-09-17T08:26:51.866Z,74.9
2022-09-17T08:27:54.855Z,75
2022-09-17T08:28:58.692Z,74.4
2022-09-17T08:30:02.298Z,73.5
2022-09-17T08:31:06.190Z,73.2
2022-09-17T08:32:10.935Z,72.5
2022-09-17T08:33:13.797Z,74.7
2022-09-17T08:34:16.952Z,73.1
2022-09-17T08:35:20.341Z,74.6
2022-09-17T08:36:23.333Z,73.4
2022-09-17T08:37:26.062Z,73.6
2022-09-17T08:38:29.091Z,72
2022-09-17T08:39:32.027Z,71.5
2022-09-17T08:40:35.318Z,71.6
2022-09-17T08:41:38.165Z,72.6
2022-09-17T08:42:40.608Z,71.4
2022-09-17T08:43:43.943Z,71.2
2022-09-17T08:44:47.175Z,72.7
2022-09-17T08:45:54.343Z,73.2
2022-09-17T08:46:57.642Z,71.6
2022-09-17T08:48:02.502Z,70.2
2022-09-17T08:49:04.928Z,71.7
2022-09-17T08:50:07.384Z,71.3
2022-09-17T08:51:11.008Z,71.8
2022-09-17T08:52:13.523Z,71.8
2022-09-17T08:53:16.804Z,72.1
2022-09-17T08:54:19.680Z,72
2022-09-17T08:55:22.689Z,71.9
2022-09-17T08:56:27.062Z,71.2
2022-09-17T08:57:29.307Z,71.4
2022-09-17T08:58:32.470Z,71.4
2022-09-17T08:59:35.624Z,71.3
2022-09-17T09:00:38.523Z,71.6
2022-09-17T09:01:42.499Z,70.2
2022-09-17T09:02:45.725Z,71.2
2022-09-17T09:03:50.407Z,70
2022-09-17T09:04:53.554Z,70.8
2022-09-17T09:05:56.371Z,69.5
2022-09-17T09:06:58.955Z,69.8
2022-09-17T09:08:02.222Z,70.1
2022-09-17T09:09:05.741Z,68.8
2022-09-17T09:10:09.104Z,70.7
2022-09-17T09:11:12.606Z,68.1
2022-09-17T09:12:16.025Z,68.6
2022-09-17T09:13:19.449Z,67.6
2022-09-17T09:14:22.518Z,66.5
2022-09-17T09:15:25.976Z,67
2022-09-17T09:16:29.424Z,67.4
2022-09-17T09:17:33.414Z,65.7
2022-09-17T09:18:37.099Z,64.9
2022-09-17T09:19:41.711Z,64.9
2022-09-17T09:20:44.417Z,65.9
2022-09-17T09:21:47.859Z,64.7
2022-09-17T09:22:50.908Z,65.2
2022-09-17T09:23:54.076Z,65.8
2022-09-17T09:24:56.589Z,64.7
2022-09-17T09:26:00.396Z,65
2022-09-17T09:27:03.751Z,62.6
2022-09-17T09:28:06.815Z,62.7
2022-09-17T09:29:09.948Z,63.2
2022-09-17T09:30:13.023Z,61.6
2022-09-17T09:31:16.390Z,62.6
2022-09-17T09:32:20.035Z,64
2022-09-17T09:33:22.941Z,62.1
2022-09-17T09:34:26.236Z,62.5
2022-09-17T09:35:30.541Z,64.6
2022-09-17T09:36:32.863Z,62.1
2022-09-17T09:37:35.929Z,61.1
2022-09-17T09:38:38.695Z,60.9
2022-09-17T09:39:47.406Z,59.6
2022-09-17T09:40:51.027Z,60.2
2022-09-17T09:41:54.023Z,59.6
2022-09-17T09:42:57.016Z,59.1
2022-09-17T09:44:07.003Z,58.6
2022-09-17T09:45:09.594Z,58.9
2022-09-17T09:46:12.654Z,58.6
2022-09-17T09:47:15.667Z,59
2022-09-17T09:48:18.937Z,58.2
2022-09-17T09:49:22.532Z,59.5
2022-09-17T09:50:25.313Z,57.3
2022-09-17T09:52:09.947Z,59.2
2022-09-17T09:53:13.316Z,59.1
2022-09-17T09:54:16.649Z,56.7
2022-09-17T09:55:26.658Z,57.3
2022-09-17T09:56:29.778Z,53.6
2022-09-17T09:57:33.515Z,55.4
2022-09-17T09:58:36.509Z,54.5
2022-09-17T09:59:39.696Z,55.1
2022-09-17T10:00:42.401Z,55.2
2022-09-17T10:01:45.427Z,54.3
2022-09-17T10:02:49.867Z,55.3
2022-09-17T10:03:53.843Z,54.4
2022-09-17T10:04:56.686Z,55.5
2022-09-17T10:05:59.474Z,54.4
2022-09-17T10:07:03.209Z,53.7
2022-09-17T10:08:07.259Z,55.2
2022-09-17T10:09:09.494Z,54.9
2022-09-17T10:10:12.320Z,54.2
2022-09-17T10:11:15.417Z,54.3
2022-09-17T10:12:18.505Z,55.6
2022-09-17T10:13:21.030Z,54.8
2022-09-17T10:14:24.119Z,53.6
2022-09-17T10:15:26.938Z,52.2
2022-09-17T10:16:30.356Z,52.7
2022-09-17T10:17:32.966Z,52.6
2022-09-17T10:18:36.316Z,52.4
2022-09-17T10:19:39.757Z,52.3
2022-09-17T10:20:42.955Z,52.3
2022-09-17T10:21:46.095Z,53.9
2022-09-17T10:22:49.463Z,54.3
2022-09-17T10:23:53.413Z,55.4
2022-09-17T10:24:56.841Z,54.6
2022-09-17T10:26:00.004Z,53.7
2022-09-17T10:27:03.465Z,54.7
2022-09-17T10:28:06.291Z,53.1
2022-09-17T10:29:09.004Z,53
2022-09-17T10:30:12.621Z,55.3
2022-09-17T10:31:15.890Z,51.1
2022-09-17T10:32:19.496Z,52.6
2022-09-17T10:33:21.684Z,51.3
2022-09-17T10:34:25.029Z,50.6
2022-09-17T10:35:27.564Z,51.6
2022-09-17T10:36:38.116Z,50.6
2022-09-17T10:37:42.104Z,49.6
2022-09-17T10:38:46.321Z,51
2022-09-17T10:39:50.642Z,49.4
2022-09-17T10:40:53.654Z,49.6
2022-09-17T10:41:56.747Z,49.9
2022-09-17T10:42:59.536Z,49.6
2022-09-17T10:44:02.382Z,50.9
2022-09-17T10:45:05.452Z,51.2
2022-09-17T10:46:08.860Z,48.9
2022-09-17T10:47:12.009Z,48.9
2022-09-17T10:48:15.350Z,50.5
2022-09-17T10:49:18.210Z,48.9
2022-09-17T10:50:21.090Z,50.9
2022-09-17T10:51:24.896Z,51.5
2022-09-17T10:52:28.728Z,51.4
2022-09-17T10:53:32.316Z,52.3
2022-09-17T10:54:36.276Z,53
2022-09-17T10:55:40.080Z,53.8
2022-09-17T10:56:43.504Z,54.1
2022-09-17T10:57:46.318Z,55.1
2022-09-17T10:58:49.393Z,56.6
2022-09-17T10:59:52.177Z,57.2
2022-09-17T11:00:55.327Z,57.6
2022-09-17T11:01:58.720Z,57.6
2022-09-17T11:03:02.129Z,55.5
2022-09-17T11:04:05.323Z,55.5
2022-09-17T11:05:08.037Z,57.1
2022-09-17T11:06:15.735Z,56.8
2022-09-17T11:07:18.884Z,55.4
2022-09-17T11:08:22.155Z,53.8
2022-09-17T11:09:25.252Z,52.7
2022-09-17T11:10:28.580Z,52.9
2022-09-17T11:11:32.637Z,54.3
2022-09-17T11:12:35.767Z,54.3
2022-09-17T11:13:38.546Z,56.9
2022-09-17T11:14:41.783Z,54.2
2022-09-17T11:15:52.248Z,54.6
2022-09-17T11:16:56.523Z,55.4
2022-09-17T11:17:59.321Z,57
2022-09-17T11:19:02.587Z,57
2022-09-17T11:20:05.924Z,56.9
2022-09-17T11:21:08.361Z,58.2
2022-09-17T11:22:11.494Z,60.5
2022-09-17T11:23:14.335Z,61.1
2022-09-17T11:24:17.548Z,60.3
2022-09-17T11:25:21.210Z,60.9
2022-09-17T11:26:24.916Z,60.3
2022-09-17T11:27:28.967Z,60.8
2022-09-17T11:28:31.556Z,61.6
2022-09-17T11:29:34.975Z,62.4
2022-09-17T11:30:38.961Z,63.5
2022-09-17T11:31:41.441Z,62.3
2022-09-17T11:32:44.470Z,64
2022-09-17T11:33:47.550Z,63.5
2022-09-17T11:34:50.269Z,63.6
2022-09-17T11:35:52.987Z,62.1
2022-09-17T11:36:56.166Z,62.1
2022-09-17T11:38:01.266Z,61.5
2022-09-17T11:39:04.338Z,61.8
2022-09-17T11:40:07.853Z,61.2
2022-09-17T11:41:11.004Z,61.6
2022-09-17T11:42:14.961Z,60.9
2022-09-17T11:43:18.450Z,59.6
2022-09-17T11:44:21.611Z,58.3
2022-09-17T11:45:24.330Z,58.2
2022-09-17T11:46:27.283Z,58.9
2022-09-17T11:47:29.978Z,58.8
2022-09-17T11:48:32.844Z,59.2
2022-09-17T11:49:36.278Z,57
2022-09-17T11:50:39.550Z,55.2
2022-09-17T11:51:42.995Z,54.1
2022-09-17T11:52:45.800Z,55
2022-09-17T11:53:49.216Z,53.8
2022-09-17T11:54:51.742Z,53.1
2022-09-17T11:55:54.482Z,53.4
2022-09-17T11:56:57.680Z,52.9
2022-09-17T11:58:01.637Z,51.7
2022-09-17T11:59:05.704Z,50.7
2022-09-17T12:00:08.431Z,50.4
2022-09-17T12:01:12.165Z,52.1
2022-09-17T12:02:15.415Z,51.6
2022-09-17T12:03:18.504Z,52.2
2022-09-17T12:04:22.100Z,53.3
2022-09-17T12:05:24.971Z,53.4
2022-09-17T12:06:28.065Z,53.7
2022-09-17T12:07:30.933Z,55.2
2022-09-17T12:08:34.746Z,55.2
2022-09-17T12:09:37.819Z,56.6
2022-09-17T12:10:40.533Z,55.3
2022-09-17T12:11:43.828Z,55.1
2022-09-17T12:12:51.828Z,53.8
2022-09-17T12:13:55.671Z,50.8
2022-09-17T12:14:59.715Z,51.1
2022-09-17T12:16:03.215Z,50.7
2022-09-17T12:17:06.108Z,52.1
2022-09-17T12:18:34.397Z,50.5
2022-09-17T12:19:37.646Z,48.7
2022-09-17T12:20:41.643Z,45.8
2022-09-17T12:21:44.912Z,45.2
2022-09-17T12:22:47.987Z,43.5
2022-09-17T12:23:51.085Z,45.1
2022-09-17T12:24:53.886Z,43
2022-09-17T12:25:56.396Z,42
2022-09-17T12:26:59.614Z,43.3
2022-09-17T12:28:02.367Z,41.8
2022-09-17T12:29:05.962Z,41.7
2022-09-17T12:30:10.014Z,42.5
2022-09-17T12:31:13.671Z,42.7
2022-09-17T12:32:17.254Z,44.6
2022-09-17T12:33:20.346Z,45.2
2022-09-17T12:34:23.072Z,45.6
2022-09-17T12:36:06.291Z,45.9
2022-09-17T12:37:09.603Z,46.5
2022-09-17T12:38:12.675Z,48.6
2022-09-17T12:39:15.850Z,49.7
2022-09-17T12:40:18.857Z,48.1
2022-09-17T12:41:21.482Z,49.5
2022-09-17T12:42:24.737Z,47.3
2022-09-17T12:43:28.046Z,48.4
2022-09-17T12:44:31.976Z,48.7
2022-09-17T12:45:36.012Z,49.8
2022-09-17T12:46:39.768Z,49.9
2022-09-17T12:47:42.634Z,50.7
2022-09-17T12:48:46.009Z,49.6
2022-09-17T12:49:48.882Z,50.9
2022-09-17T12:50:51.993Z,50.2
2022-09-17T12:51:54.492Z,50.6
2022-09-17T12:52:57.461Z,50.7
2022-09-17T12:54:01.190Z,51.6
2022-09-17T12:55:04.569Z,51.8
2022-09-17T12:56:07.433Z,49.9
2022-09-17T12:57:09.674Z,51
2022-09-17T12:58:13.131Z,52.2
2022-09-17T12:59:16.150Z,50.4
2022-09-17T13:00:19.359Z,50.9
2022-09-17T13:01:23.177Z,51.3
2022-09-17T13:02:25.988Z,52.7
2022-09-17T13:03:29.093Z,51.9
2022-09-17T13:05:02.989Z,52
2022-09-17T13:06:06.260Z,51.5
2022-09-17T13:07:09.043Z,51.5
2022-09-17T13:08:12.748Z,51.8
2022-09-17T13:09:15.737Z,51.2
2022-09-17T13:10:18.800Z,51.5
2022-09-17T13:11:21.110Z,51.8
2022-09-17T13:12:24.170Z,51.5
2022-09-17T13:13:27.456Z,52
2022-09-17T13:14:30.696Z,52.6
2022-09-17T13:15:34.488Z,53.2
2022-09-17T13:16:39.074Z,53.6
2022-09-17T13:17:41.711Z,53.2
2022-09-17T13:19:17.701Z,54.4
2022-09-17T13:20:22.168Z,54.3
2022-09-17T13:21:24.685Z,54.5
2022-09-17T13:22:28.410Z,54.2
2022-09-17T13:23:31.509Z,54.9
2022-09-17T13:24:34.100Z,55
2022-09-17T13:25:36.613Z,54.7
2022-09-17T13:26:40.049Z,54.2
2022-09-17T13:27:42.842Z,55.1
2022-09-17T13:28:48.742Z,55.4
2022-09-17T13:29:52.230Z,54.8
2022-09-17T13:30:55.807Z,55.5
2022-09-17T13:32:00.139Z,54.6
2022-09-17T13:33:02.117Z,55
2022-09-17T13:34:04.995Z,56
2022-09-17T13:35:08.167Z,52.7
2022-09-17T13:36:11.541Z,53.2
2022-09-17T13:37:14.410Z,54.7
2022-09-17T13:38:24.990Z,53.9
2022-09-17T13:39:27.799Z,54.2
2022-09-17T13:40:30.933Z,55.4
2022-09-17T13:41:33.683Z,55.1
2022-09-17T13:42:36.549Z,56.1
2022-09-17T13:43:39.268Z,56.1
2022-09-17T13:44:42.290Z,55.8
2022-09-17T13:45:45.324Z,56.4
2022-09-17T13:46:49.796Z,56
2022-09-17T13:47:53.906Z,55.6
2022-09-17T13:48:57.291Z,54.5
2022-09-17T13:50:00.436Z,55.3
2022-09-17T13:51:02.942Z,55.5
2022-09-17T13:52:12.987Z,55.7
2022-09-17T13:53:15.465Z,54.9
2022-09-17T13:54:18.640Z,54.9
2022-09-17T13:55:21.801Z,56.3
2022-09-17T13:56:24.984Z,55.4
2022-09-17T13:57:27.296Z,55.5
2022-09-17T13:58:30.202Z,56.6
2022-09-17T13:59:33.993Z,55.9
2022-09-17T14:00:37.386Z,56.6
2022-09-17T14:01:40.853Z,56.1
2022-09-17T14:02:44.557Z,55.5
2022-09-17T14:03:49.179Z,54.7
2022-09-17T14:04:52.134Z,53.4
2022-09-17T14:05:55.859Z,53.6
2022-09-17T14:06:58.829Z,52.7
2022-09-17T14:08:01.650Z,52.7
2022-09-17T14:09:05.077Z,52.1
2022-09-17T14:10:07.871Z,51.3
2022-09-17T14:11:10.102Z,51.4